createdAt,value
2018-08-30T00:02:14.284Z,13.70
2018-08-30T00:04:41.816Z,19.23
2018-08-30T00:07:09.409Z,15.30
2018-08-30T00:09:36.987Z,14.33
2018-08-30T00:12:04.796Z,14.80
2018-08-30T00:14:32.772Z,14.63
2018-08-30T00:17:00.580Z,19.63
2018-08-30T00:19:28.127Z,20.00
2018-08-30T00:21:55.687Z,14.80
2018-08-30T00:24:23.264Z,17.17
2018-08-30T00:26:50.830Z,14.60
2018-08-30T00:29:18.359Z,16.60
2018-08-30T00:31:45.933Z,19.13
2018-08-30T00:34:13.470Z,19.13
2018-08-30T00:36:40.989Z,16.73
2018-08-30T00:39:09.271Z,16.73
2018-08-30T00:41:37.083Z,19.73
2018-08-30T00:44:04.677Z,17.53
2018-08-30T00:46:32.228Z,17.83
2018-08-30T00:48:59.756Z,19.80
2018-08-30T00:51:27.284Z,16.10
2018-08-30T00:53:54.867Z,21.53
2018-08-30T00:56:22.431Z,14.20
2018-08-30T00:58:50.013Z,15.37
2018-08-30T01:01:17.589Z,13.00
2018-08-30T01:03:45.192Z,15.20
2018-08-30T01:06:12.807Z,18.97
2018-08-30T01:08:40.380Z,18.63
2018-08-30T01:11:08.046Z,14.10
2018-08-30T01:13:35.603Z,18.53
2018-08-30T01:16:03.230Z,17.40
2018-08-30T01:18:30.787Z,18.13
2018-08-30T01:20:58.349Z,16.70
2018-08-30T01:23:25.959Z,15.17
2018-08-30T01:25:53.481Z,12.70
2018-08-30T01:28:21.067Z,12.40
2018-08-30T01:30:48.712Z,14.40
2018-08-30T01:33:16.315Z,18.30
2018-08-30T01:35:43.857Z,11.63
2018-08-30T01:38:11.433Z,18.90
2018-08-30T01:40:38.976Z,18.27
2018-08-30T01:43:06.513Z,16.63
2018-08-30T01:45:34.110Z,16.77
2018-08-30T01:48:01.624Z,11.37
2018-08-30T01:50:29.463Z,15.27
2018-08-30T01:52:57.104Z,18.63
2018-08-30T01:55:24.642Z,17.50
2018-08-30T01:57:52.173Z,14.43
2018-08-30T02:00:19.783Z,13.53
2018-08-30T02:02:47.582Z,17.20
2018-08-30T02:05:15.113Z,14.60
2018-08-30T02:07:42.671Z,14.97
2018-08-30T02:10:10.190Z,12.63
2018-08-30T02:12:37.710Z,17.30
2018-08-30T02:15:05.559Z,12.33
2018-08-30T02:17:33.077Z,14.20
2018-08-30T02:20:00.591Z,11.80
2018-08-30T02:22:28.188Z,10.03
2018-08-30T02:24:55.762Z,12.60
2018-08-30T02:27:23.304Z,10.00
2018-08-30T02:29:50.847Z,15.60
2018-08-30T02:32:18.393Z,9.23
2018-08-30T02:34:45.896Z,12.60
2018-08-30T02:37:13.474Z,12.10
2018-08-30T02:39:41.000Z,11.80
2018-08-30T02:42:08.514Z,9.30
2018-08-30T02:44:36.081Z,13.23
2018-08-30T02:47:04.020Z,15.13
2018-08-30T02:49:31.563Z,10.67
2018-08-30T02:51:59.178Z,11.70
2018-08-30T02:54:26.688Z,12.43
2018-08-30T02:56:54.218Z,13.70
2018-08-30T02:59:21.781Z,11.63
2018-08-30T03:01:49.306Z,9.63
2018-08-30T03:04:16.874Z,12.37
2018-08-30T03:06:44.436Z,11.13
2018-08-30T03:09:11.955Z,10.47
2018-08-30T03:11:39.503Z,9.40
2018-08-30T03:14:07.079Z,14.23
2018-08-30T03:16:34.600Z,11.00
2018-08-30T03:19:02.120Z,14.33
2018-08-30T03:21:29.737Z,12.93
2018-08-30T03:23:57.274Z,10.90
2018-08-30T03:26:24.799Z,13.40
2018-08-30T03:28:52.347Z,13.97
2018-08-30T03:31:19.903Z,9.30
2018-08-30T03:33:47.444Z,11.30
2018-08-30T03:36:15.022Z,9.77
2018-08-30T03:38:42.548Z,11.27
2018-08-30T03:41:10.066Z,10.27
2018-08-30T03:43:37.631Z,10.10
2018-08-30T03:46:05.204Z,10.73
2018-08-30T03:48:32.721Z,12.77
2018-08-30T03:51:00.302Z,9.53
2018-08-30T03:53:27.802Z,14.43
2018-08-30T03:55:55.322Z,10.23
2018-08-30T03:58:22.877Z,9.27
2018-08-30T04:00:50.411Z,9.07
2018-08-30T04:03:17.944Z,13.10
2018-08-30T04:05:45.480Z,8.87
2018-08-30T04:08:13.012Z,12.27
2018-08-30T04:10:40.542Z,7.77
2018-08-30T04:13:08.078Z,8.37
2018-08-30T04:15:35.589Z,10.57
2018-08-30T04:18:03.109Z,13.43
2018-08-30T04:20:30.676Z,11.67
2018-08-30T04:22:58.253Z,9.93
2018-08-30T04:25:25.835Z,11.10
2018-08-30T04:27:53.561Z,10.37
2018-08-30T04:30:21.264Z,9.33
2018-08-30T04:32:48.768Z,9.50
2018-08-30T04:35:16.325Z,11.43
2018-08-30T04:37:43.873Z,7.50
2018-08-30T04:40:11.396Z,11.47
2018-08-30T04:42:39.004Z,9.17
2018-08-30T04:45:06.828Z,11.30
2018-08-30T04:47:34.410Z,13.10
2018-08-30T04:50:02.029Z,10.93
2018-08-30T04:52:29.608Z,9.10
2018-08-30T04:54:57.127Z,8.10
2018-08-30T04:57:24.702Z,12.40
2018-08-30T04:59:52.221Z,10.30
2018-08-30T05:02:19.850Z,15.80
2018-08-30T05:04:47.400Z,11.93
2018-08-30T05:07:14.941Z,10.67
2018-08-30T05:09:42.542Z,13.90
2018-08-30T05:12:10.120Z,8.03
2018-08-30T05:14:37.678Z,6.53
2018-08-30T05:17:05.404Z,8.23
2018-08-30T05:19:32.980Z,7.77
2018-08-30T05:22:00.579Z,8.63
2018-08-30T05:24:28.190Z,9.10
2018-08-30T05:26:55.775Z,10.60
2018-08-30T05:29:23.310Z,7.80
2018-08-30T05:31:50.923Z,7.60
2018-08-30T05:34:18.491Z,10.90
2018-08-30T05:36:46.475Z,7.80
2018-08-30T05:39:14.074Z,10.70
2018-08-30T05:41:41.615Z,6.80
2018-08-30T05:44:09.283Z,7.27
2018-08-30T05:46:36.863Z,8.97
2018-08-30T05:49:04.417Z,9.93
2018-08-30T05:51:31.963Z,17.27
2018-08-30T05:53:59.534Z,9.97
2018-08-30T05:56:27.121Z,7.87
2018-08-30T05:58:54.699Z,8.27
2018-08-30T06:01:22.383Z,7.57
2018-08-30T06:03:49.954Z,7.93
2018-08-30T06:06:17.561Z,10.90
2018-08-30T06:08:45.181Z,10.50
2018-08-30T06:11:12.763Z,6.83
2018-08-30T06:13:40.357Z,7.97
2018-08-30T06:16:07.993Z,9.80
2018-08-30T06:18:35.807Z,10.40
2018-08-30T06:21:03.453Z,8.40
2018-08-30T06:23:31.071Z,8.57
2018-08-30T06:25:58.654Z,10.13
2018-08-30T06:28:26.259Z,9.17
2018-08-30T06:30:53.851Z,10.07
2018-08-30T06:33:21.424Z,9.30
2018-08-30T06:35:49.035Z,5.30
2018-08-30T06:38:16.629Z,7.63
2018-08-30T06:40:44.198Z,15.90
2018-08-30T06:43:11.771Z,6.77
2018-08-30T06:45:39.403Z,4.23
2018-08-30T06:48:06.967Z,4.33
2018-08-30T06:50:34.487Z,6.90
2018-08-30T06:53:02.087Z,9.70
2018-08-30T06:55:29.685Z,7.57
2018-08-30T06:57:57.227Z,9.60
2018-08-30T07:00:24.795Z,8.70
2018-08-30T07:02:52.317Z,6.20
2018-08-30T07:05:19.987Z,12.60
2018-08-30T07:07:47.587Z,5.33
2018-08-30T07:10:15.341Z,4.20
2018-08-30T07:12:42.937Z,5.93
2018-08-30T07:15:10.599Z,6.03
2018-08-30T07:17:38.193Z,4.30
2018-08-30T07:20:05.894Z,4.87
2018-08-30T07:22:33.552Z,9.03
2018-08-30T07:25:01.155Z,10.77
2018-08-30T07:27:28.757Z,2.53
2018-08-30T07:29:56.350Z,10.13
2018-08-30T07:32:23.956Z,4.47
2018-08-30T07:34:51.658Z,6.30
2018-08-30T07:37:19.148Z,7.73
2018-08-30T07:39:46.755Z,6.90
2018-08-30T07:42:14.420Z,7.60
2018-08-30T07:44:42.100Z,6.17
2018-08-30T07:47:09.747Z,4.83
2018-08-30T07:49:37.331Z,7.27
2018-08-30T07:52:04.948Z,4.60
2018-08-30T07:54:32.688Z,2.90
2018-08-30T07:57:00.321Z,4.00
2018-08-30T07:59:27.908Z,1.90
2018-08-30T08:01:55.539Z,7.27
2018-08-30T08:04:23.182Z,4.60
2018-08-30T08:06:50.808Z,7.80
2018-08-30T08:09:18.474Z,3.20
2018-08-30T08:11:46.073Z,5.07
2018-08-30T08:14:13.682Z,7.83
2018-08-30T08:16:41.458Z,2.27
2018-08-30T08:19:09.076Z,5.13
2018-08-30T08:21:36.688Z,4.60
2018-08-30T08:24:04.283Z,4.60
2018-08-30T08:26:32.026Z,4.07
2018-08-30T08:28:59.589Z,7.83
2018-08-30T08:31:27.206Z,8.57
2018-08-30T08:33:54.729Z,4.73
2018-08-30T08:36:22.384Z,7.53
2018-08-30T08:38:50.046Z,4.63
2018-08-30T08:41:17.637Z,3.40
2018-08-30T08:43:45.233Z,4.57
2018-08-30T08:46:12.785Z,4.13
2018-08-30T08:48:40.386Z,7.00
2018-08-30T08:51:08.121Z,3.93
2018-08-30T08:53:35.710Z,2.67
2018-08-30T08:56:03.287Z,5.57
2018-08-30T08:58:30.926Z,7.80
2018-08-30T09:00:58.491Z,6.03
2018-08-30T09:03:26.079Z,5.13
2018-08-30T09:05:53.633Z,4.20
2018-08-30T09:08:21.364Z,7.23
2018-08-30T09:10:48.937Z,1.97
2018-08-30T09:13:16.617Z,2.97
2018-08-30T09:15:44.178Z,1.83
2018-08-30T09:18:11.720Z,2.33
2018-08-30T09:20:39.356Z,2.30
2018-08-30T09:23:06.997Z,2.50
2018-08-30T09:25:34.533Z,2.00
2018-08-30T09:28:02.176Z,2.60
2018-08-30T09:30:29.753Z,4.47
2018-08-30T09:32:57.301Z,1.33
2018-08-30T09:35:24.880Z,4.27
2018-08-30T09:37:52.480Z,4.27
2018-08-30T09:40:20.062Z,3.40
2018-08-30T09:42:47.664Z,5.10
2018-08-30T09:45:15.194Z,1.37
2018-08-30T09:47:42.790Z,2.80
2018-08-30T09:50:10.382Z,5.20
2018-08-30T09:52:38.070Z,2.73
2018-08-30T09:55:05.914Z,2.43
2018-08-30T09:57:33.625Z,6.13
2018-08-30T10:00:01.203Z,2.20
2018-08-30T10:02:34.405Z,6.80
2018-08-30T10:05:02.009Z,5.47
2018-08-30T10:07:29.673Z,2.50
2018-08-30T10:09:57.283Z,3.23
2018-08-30T10:12:25.766Z,7.50
2018-08-30T10:14:53.357Z,1.80
2018-08-30T10:17:20.933Z,6.63
2018-08-30T10:19:48.513Z,3.03
2018-08-30T10:22:16.173Z,5.50
2018-08-30T10:24:43.800Z,4.33
2018-08-30T10:27:11.342Z,3.90
2018-08-30T10:29:38.887Z,5.10
2018-08-30T10:32:06.472Z,3.13
2018-08-30T10:34:34.072Z,2.37
2018-08-30T10:37:01.631Z,4.27
2018-08-30T10:39:29.198Z,4.53
2018-08-30T10:41:56.768Z,4.27
2018-08-30T10:44:24.339Z,4.77
2018-08-30T10:46:51.960Z,8.93
2018-08-30T10:49:19.538Z,1.30
2018-08-30T10:51:47.164Z,5.87
2018-08-30T10:54:14.763Z,6.20
2018-08-30T10:56:42.387Z,7.20
2018-08-30T10:59:09.987Z,2.10
2018-08-30T11:01:37.701Z,7.80
2018-08-30T11:04:05.674Z,4.10
2018-08-30T11:06:33.321Z,3.17
2018-08-30T11:09:00.971Z,2.90
2018-08-30T11:11:28.546Z,3.33
2018-08-30T11:13:56.149Z,2.03
2018-08-30T11:16:23.876Z,3.50
2018-08-30T11:18:51.544Z,6.50
2018-08-30T11:21:19.119Z,4.73
2018-08-30T11:23:46.765Z,5.77
2018-08-30T11:26:14.352Z,2.33
2018-08-30T11:28:41.909Z,1.67
2018-08-30T11:31:09.526Z,5.50
2018-08-30T11:33:37.095Z,3.67
2018-08-30T11:36:04.926Z,3.57
2018-08-30T11:38:32.620Z,6.20
2018-08-30T11:41:00.219Z,3.63
2018-08-30T11:43:27.933Z,4.40
2018-08-30T11:45:55.372Z,2.43
2018-08-30T11:48:22.935Z,2.87
2018-08-30T11:50:50.517Z,3.70
2018-08-30T11:53:18.149Z,2.10
2018-08-30T11:55:45.711Z,2.50
2018-08-30T11:58:13.285Z,1.50
2018-08-30T12:00:40.931Z,1.23
2018-08-30T12:03:08.515Z,5.07
2018-08-30T12:05:36.092Z,1.87
2018-08-30T12:08:04.654Z,4.97
2018-08-30T12:10:34.924Z,3.07
2018-08-30T12:13:02.478Z,4.93
2018-08-30T12:15:30.104Z,7.53
2018-08-30T12:17:57.663Z,3.93
2018-08-30T12:20:25.321Z,2.03
2018-08-30T12:22:52.871Z,4.33
2018-08-30T12:25:20.455Z,6.07
2018-08-30T12:27:48.030Z,3.47
2018-08-30T12:30:15.673Z,1.40
2018-08-30T12:32:43.250Z,4.53
2018-08-30T12:35:10.937Z,7.90
2018-08-30T12:37:38.512Z,3.27
2018-08-30T12:40:06.258Z,4.27
2018-08-30T12:42:33.875Z,2.10
2018-08-30T12:45:01.393Z,3.90
2018-08-30T12:47:29.011Z,2.37
2018-08-30T12:49:56.689Z,2.73
2018-08-30T12:52:24.492Z,2.73
2018-08-30T12:54:52.040Z,5.83
2018-08-30T12:57:19.730Z,0.77
2018-08-30T12:59:47.366Z,6.23
2018-08-30T13:02:14.987Z,3.13
2018-08-30T13:04:42.669Z,1.57
2018-08-30T13:07:10.288Z,1.53
2018-08-30T13:09:38.065Z,3.57
2018-08-30T13:12:06.003Z,3.40
2018-08-30T13:14:33.691Z,2.27
2018-08-30T13:17:01.089Z,6.03
2018-08-30T13:19:29.036Z,0.90
2018-08-30T13:21:56.320Z,5.03
2018-08-30T13:24:24.017Z,3.93
2018-08-30T13:26:51.581Z,3.33
2018-08-30T13:29:19.333Z,3.80
2018-08-30T13:31:46.987Z,2.97
2018-08-30T13:34:15.372Z,5.13
2018-08-30T13:36:42.808Z,1.93
2018-08-30T13:39:11.307Z,4.33
2018-08-30T13:41:39.258Z,1.57
2018-08-30T13:44:08.143Z,2.22
2018-08-30T13:46:36.018Z,5.80
2018-08-30T13:49:03.764Z,6.97
2018-08-30T13:51:31.296Z,3.10
2018-08-30T13:53:59.204Z,4.67
2018-08-30T13:56:27.018Z,3.20
2018-08-30T13:58:54.750Z,2.83
2018-08-30T14:01:22.383Z,8.70
2018-08-30T14:03:49.793Z,2.40
2018-08-30T14:06:17.502Z,1.80
2018-08-30T14:08:45.143Z,3.33
2018-08-30T14:11:12.699Z,3.40
2018-08-30T14:13:40.319Z,6.23
2018-08-30T14:16:07.716Z,2.13
2018-08-30T14:18:35.254Z,2.97
2018-08-30T14:21:02.869Z,1.97
2018-08-30T14:23:30.532Z,3.20
2018-08-30T14:25:58.152Z,2.47
2018-08-30T14:28:25.748Z,2.10
2018-08-30T14:30:53.294Z,1.83
2018-08-30T14:33:20.839Z,3.53
2018-08-30T14:35:48.602Z,2.93
2018-08-30T14:38:16.118Z,1.70
2018-08-30T14:40:43.817Z,1.73
2018-08-30T14:43:11.348Z,4.13
2018-08-30T14:45:39.353Z,4.00
2018-08-30T14:48:06.910Z,3.60
2018-08-30T14:50:34.443Z,6.20
2018-08-30T14:53:02.038Z,4.93
2018-08-30T14:55:29.661Z,3.17
2018-08-30T14:57:57.267Z,7.93
2018-08-30T15:00:25.979Z,6.97
2018-08-30T15:02:53.297Z,3.17
2018-08-30T15:05:20.972Z,1.60
2018-08-30T15:07:48.495Z,7.27
2018-08-30T15:10:16.377Z,1.90
2018-08-30T15:12:44.289Z,4.03
2018-08-30T15:15:11.975Z,5.43
2018-08-30T15:17:39.780Z,6.50
2018-08-30T15:20:07.489Z,1.33
2018-08-30T15:22:35.089Z,2.87
2018-08-30T15:25:02.749Z,4.03
2018-08-30T15:27:30.318Z,3.53
2018-08-30T15:29:57.862Z,2.60
2018-08-30T15:32:25.527Z,4.37
2018-08-30T15:34:53.134Z,6.43
2018-08-30T15:37:20.742Z,3.83
2018-08-30T15:39:48.409Z,3.23
2018-08-30T15:42:16.058Z,6.07
2018-08-30T15:44:43.541Z,3.27
2018-08-30T15:47:11.214Z,1.30
2018-08-30T15:49:38.668Z,2.30
2018-08-30T15:52:06.324Z,3.30
2018-08-30T15:54:33.967Z,3.17
2018-08-30T15:57:01.598Z,6.13
2018-08-30T15:59:29.301Z,1.90
2018-08-30T16:01:57.262Z,4.23
2018-08-30T16:04:24.751Z,7.13
2018-08-30T16:06:52.471Z,2.50
2018-08-30T16:09:19.938Z,2.00
2018-08-30T16:11:47.476Z,3.67
2018-08-30T16:14:15.017Z,4.40
2018-08-30T16:16:42.604Z,3.00
2018-08-30T16:19:10.125Z,3.30
2018-08-30T16:21:37.702Z,3.63
2018-08-30T16:24:05.482Z,3.73
2018-08-30T16:26:33.129Z,2.17
2018-08-30T16:29:00.750Z,2.73
2018-08-30T16:31:28.312Z,3.67
2018-08-30T16:33:55.877Z,5.63
2018-08-30T16:36:23.450Z,3.23
2018-08-30T16:38:51.047Z,2.70
2018-08-30T16:41:18.916Z,1.80
2018-08-30T16:43:46.450Z,4.43
2018-08-30T16:46:14.023Z,4.50
2018-08-30T16:48:41.663Z,0.43
2018-08-30T16:51:09.276Z,0.90
2018-08-30T16:53:36.908Z,1.93
2018-08-30T16:56:04.725Z,1.63
2018-08-30T16:58:32.328Z,4.10
2018-08-30T17:00:59.921Z,4.67
2018-08-30T17:03:27.582Z,3.37
2018-08-30T17:05:55.211Z,3.60
2018-08-30T17:08:22.796Z,1.97
2018-08-30T17:10:50.468Z,5.63
2018-08-30T17:13:18.065Z,3.20
2018-08-30T17:15:45.657Z,1.57
2018-08-30T17:18:13.277Z,3.13
2018-08-30T17:20:45.576Z,4.03
2018-08-30T17:23:13.201Z,3.27
2018-08-30T17:25:41.917Z,1.80
2018-08-30T17:28:09.547Z,4.37
2018-08-30T17:30:37.275Z,1.57
2018-08-30T17:33:05.145Z,3.67
2018-08-30T17:35:32.694Z,4.27
2018-08-30T17:38:00.279Z,1.83
2018-08-30T17:40:28.005Z,5.27
2018-08-30T17:42:55.597Z,1.77
2018-08-30T17:45:23.496Z,3.23
2018-08-30T17:47:50.991Z,2.80
2018-08-30T17:50:19.124Z,1.40
2018-08-30T17:52:46.840Z,3.43
2018-08-30T17:57:48.902Z,1.80
2018-08-30T18:00:16.658Z,2.07
2018-08-30T18:02:45.276Z,2.97
2018-08-30T18:05:13.470Z,2.17
2018-08-30T18:07:41.008Z,1.00
2018-08-30T18:10:09.060Z,1.33
2018-08-30T18:12:37.153Z,2.47
2018-08-30T18:15:05.836Z,1.23
2018-08-30T18:17:33.393Z,1.00
2018-08-30T18:20:01.060Z,3.37
2018-08-30T18:22:28.617Z,0.83
2018-08-30T18:24:56.295Z,2.07
2018-08-30T18:27:24.003Z,0.73
2018-08-30T18:29:51.553Z,4.20
2018-08-30T18:32:19.196Z,0.40
2018-08-30T18:34:46.824Z,0.70
2018-08-30T18:37:14.415Z,0.97
2018-08-30T18:39:42.050Z,1.13
2018-08-30T18:42:09.627Z,0.97
2018-08-30T18:44:37.156Z,3.03
2018-08-30T18:47:04.742Z,2.23
2018-08-30T18:49:32.413Z,0.90
2018-08-30T18:51:59.984Z,2.47
2018-08-30T18:54:27.524Z,7.03
2018-08-30T18:56:55.136Z,2.47
2018-08-30T18:59:22.662Z,1.77
2018-08-30T19:01:50.246Z,2.43
2018-08-30T19:04:17.768Z,4.43
2018-08-30T19:06:45.310Z,4.50
2018-08-30T19:09:12.852Z,2.37
2018-08-30T19:11:41.036Z,1.77
2018-08-30T19:14:08.646Z,0.60
2018-08-30T19:16:42.294Z,2.30
2018-08-30T19:19:14.148Z,2.30
2018-08-30T19:21:41.910Z,4.70
2018-08-30T19:24:15.004Z,2.50
2018-08-30T19:26:42.562Z,9.30
2018-08-30T19:29:10.096Z,3.97
2018-08-30T19:31:37.672Z,1.53
2018-08-30T19:34:05.442Z,2.80
2018-08-30T19:36:32.994Z,4.00
2018-08-30T19:39:01.482Z,6.67
2018-08-30T19:41:29.179Z,4.33
2018-08-30T19:43:56.789Z,12.80
2018-08-30T19:46:24.445Z,9.60
2018-08-30T19:48:52.105Z,9.27
2018-08-30T19:51:19.737Z,10.00
2018-08-30T19:53:47.327Z,3.23
2018-08-30T19:56:15.309Z,2.93
2018-08-30T19:58:43.387Z,1.93
2018-08-30T20:01:11.000Z,1.83
2018-08-30T20:03:38.705Z,6.97
2018-08-30T20:06:06.675Z,2.67
2018-08-30T20:08:34.313Z,4.67
2018-08-30T20:11:02.163Z,3.83
2018-08-30T20:13:29.831Z,3.13
2018-08-30T20:15:57.705Z,2.33
2018-08-30T20:18:25.734Z,4.23
2018-08-30T20:20:53.303Z,2.27
2018-08-30T20:23:21.087Z,4.00
2018-08-30T20:25:48.796Z,0.97
2018-08-30T20:28:16.684Z,2.70
2018-08-30T20:30:44.529Z,4.73
2018-08-30T20:33:12.195Z,1.70
2018-08-30T20:35:39.862Z,2.93
2018-08-30T20:38:07.550Z,3.03
2018-08-30T20:40:35.241Z,5.53
2018-08-30T20:43:02.894Z,2.73
2018-08-30T20:45:30.627Z,3.37
2018-08-30T20:47:58.378Z,2.43
2018-08-30T20:50:26.044Z,2.57
2018-08-30T20:52:53.643Z,3.10
2018-08-30T20:55:21.252Z,3.40
2018-08-30T20:57:48.880Z,2.20
2018-08-30T21:00:16.554Z,3.00
2018-08-30T21:02:44.230Z,2.63
2018-08-30T21:05:11.832Z,3.77
2018-08-30T21:07:39.470Z,2.00
2018-08-30T21:10:07.163Z,2.60
2018-08-30T21:12:34.763Z,1.77
2018-08-30T21:15:02.342Z,2.93
2018-08-30T21:17:29.956Z,2.50
2018-08-30T21:19:57.506Z,3.50
2018-08-30T21:22:25.381Z,2.10
2018-08-30T21:24:53.177Z,0.73
2018-08-30T21:27:20.713Z,2.37
2018-08-30T21:29:48.308Z,7.17
2018-08-30T21:32:15.877Z,1.87
2018-08-30T21:34:43.419Z,2.07
2018-08-30T21:37:11.137Z,3.10
2018-08-30T21:39:38.755Z,5.00
2018-08-30T21:42:06.311Z,3.13
2018-08-30T21:44:33.835Z,2.73
2018-08-30T21:47:01.419Z,1.93
2018-08-30T21:49:29.068Z,3.50
2018-08-30T21:51:56.683Z,3.23
2018-08-30T21:54:24.267Z,4.23
2018-08-30T21:56:51.896Z,0.87
2018-08-30T21:59:19.471Z,5.10
2018-08-30T22:01:47.053Z,3.40
2018-08-30T22:04:14.644Z,2.57
2018-08-30T22:06:42.195Z,4.97
2018-08-30T22:09:10.966Z,4.27
2018-08-30T22:11:38.541Z,3.50
2018-08-30T22:14:06.129Z,1.80
2018-08-30T22:16:33.711Z,1.20
2018-08-30T22:19:01.301Z,5.27
2018-08-30T22:21:28.851Z,2.60
2018-08-30T22:23:56.471Z,1.87
2018-08-30T22:26:24.112Z,3.10
2018-08-30T22:28:51.645Z,0.63
2018-08-30T22:31:19.205Z,2.10
2018-08-30T22:33:46.779Z,1.77
2018-08-30T22:36:14.389Z,3.93
2018-08-30T22:38:41.949Z,2.53
2018-08-30T22:41:09.496Z,4.33
2018-08-30T22:43:37.073Z,2.43
2018-08-30T22:46:04.649Z,3.60
2018-08-30T22:48:32.211Z,3.30
2018-08-30T22:50:59.733Z,2.93
2018-08-30T22:53:27.364Z,3.33
2018-08-30T22:55:54.885Z,1.73
2018-08-30T22:58:22.493Z,1.27
2018-08-30T23:00:50.057Z,4.20
2018-08-30T23:03:17.655Z,5.20
2018-08-30T23:05:45.199Z,3.30
2018-08-30T23:08:12.811Z,1.83
2018-08-30T23:10:40.357Z,2.87
2018-08-30T23:13:08.120Z,1.47
2018-08-30T23:15:35.760Z,6.60
2018-08-30T23:18:03.473Z,6.00
2018-08-30T23:20:31.030Z,4.73
2018-08-30T23:22:58.607Z,2.00
2018-08-30T23:25:26.174Z,2.27
2018-08-30T23:27:53.757Z,7.10
2018-08-30T23:30:21.386Z,5.40
2018-08-30T23:32:48.993Z,4.70
2018-08-30T23:35:16.575Z,4.10
2018-08-30T23:37:44.175Z,5.70
2018-08-30T23:40:11.807Z,8.43
2018-08-30T23:42:39.413Z,4.67
2018-08-30T23:45:07.149Z,4.50
2018-08-30T23:47:34.805Z,1.83
2018-08-30T23:50:02.411Z,4.87
2018-08-30T23:52:30.027Z,4.00
2018-08-30T23:54:57.659Z,1.30
2018-08-30T23:57:25.233Z,6.13
